Time;durP1;ratioP1;P1;durP2;ratioP2;P2;SDS_P1;SDS_P2;PMS_P1;PMS_P2;Temp;Humidity;BMP_temperature;BMP_pressure;BME280_temperature;BME280_humidity;BME280_pressure;Samples;Min_cycle;Max_cycle;Signal;HPM_P1;HPM_P2
2022/01/12 00:00:49;;;;;;;9.75;4.93;;;;;;;;;;4994336;28;20180;-50
2022/01/12 00:03:15;;;;;;;4.30;3.90;;;;;;;;;;4995872;28;20276;-50
2022/01/12 00:05:42;;;;;;;5.97;3.83;;;;;;;;;;4995538;28;20230;-51
2022/01/12 00:08:08;;;;;;;9.73;4.90;;;;;;;;;;4995772;28;20411;-50
2022/01/12 00:10:35;;;;;;;6.95;4.30;;;;;;;;;;4995934;28;20212;-50
2022/01/12 00:13:01;;;;;;;7.03;4.68;;;;;;;;;;4995810;28;20296;-50
2022/01/12 00:15:27;;;;;;;6.40;4.67;;;;;;;;;;4995409;28;20619;-50
2022/01/12 00:17:53;;;;;;;7.55;4.45;;;;;;;;;;4995861;28;20470;-50
2022/01/12 00:20:19;;;;;;;7.70;4.45;;;;;;;;;;4995570;28;20207;-50
2022/01/12 00:22:45;;;;;;;8.40;4.80;;;;;;;;;;4995792;28;20173;-49
2022/01/12 00:25:25;;;;;;;5.00;4.50;;;;;;;;;;4995213;28;20880;-49
2022/01/12 00:33:22;;;;;;;10.15;4.10;;;;;;;;;;4995538;28;20442;-50
2022/01/12 00:35:49;;;;;;;5.15;4.30;;;;;;;;;;4995075;28;20239;-50
2022/01/12 00:38:16;;;;;;;6.47;4.20;;;;;;;;;;4995413;28;20172;-49
2022/01/12 00:41:00;;;;;;;6.10;3.95;;;;;;;;;;4995283;28;20173;-50
2022/01/12 00:43:29;;;;;;;3.92;3.63;;;;;;;;;;4995026;28;20556;-50
2022/01/12 00:45:55;;;;;;;6.05;3.97;;;;;;;;;;4995107;28;20181;-50
2022/01/12 00:48:21;;;;;;;4.32;3.55;;;;;;;;;;4995157;28;20196;-50
2022/01/12 00:50:47;;;;;;;3.50;3.20;;;;;;;;;;4995106;28;20603;-50
2022/01/12 00:53:14;;;;;;;4.53;3.63;;;;;;;;;;4995013;28;20893;-50
2022/01/12 00:55:40;;;;;;;8.25;4.07;;;;;;;;;;4994645;28;20602;-50
2022/01/12 00:58:07;;;;;;;8.18;3.75;;;;;;;;;;4994957;28;20208;-50
2022/01/12 01:00:33;;;;;;;11.63;3.67;;;;;;;;;;4995063;28;20540;-50
2022/01/12 01:02:59;;;;;;;4.20;3.80;;;;;;;;;;4994863;28;20271;-50
2022/01/12 01:05:27;;;;;;;6.13;4.03;;;;;;;;;;4994528;28;20300;-51
2022/01/12 01:07:53;;;;;;;9.18;4.28;;;;;;;;;;4994731;28;20424;-50
2022/01/12 01:10:30;;;;;;;12.73;3.87;;;;;;;;;;4994690;28;20180;-49
2022/01/12 01:12:56;;;;;;;5.60;4.15;;;;;;;;;;4993558;28;20408;-51
2022/01/12 01:15:40;;;;;;;4.13;3.37;;;;;;;;;;4994300;28;20195;-51
2022/01/12 01:26:39;;;;;;;4.80;4.15;;;;;;;;;;4992459;28;20223;-50
2022/01/12 01:29:06;;;;;;;10.43;4.95;;;;;;;;;;4993539;28;20204;-50
2022/01/12 01:31:34;;;;;;;5.82;4.15;;;;;;;;;;4994363;28;20173;-50
2022/01/12 01:34:07;;;;;;;6.03;3.80;;;;;;;;;;4993993;28;20192;-50
2022/01/12 01:36:37;;;;;;;4.57;3.63;;;;;;;;;;4994329;28;20175;-50
2022/01/12 01:39:04;;;;;;;3.47;3.20;;;;;;;;;;4994288;28;20168;-49
2022/01/12 01:41:30;;;;;;;6.53;4.00;;;;;;;;;;4994085;28;20176;-50
2022/01/12 01:54:50;;;;;;;8.13;3.53;;;;;;;;;;4993820;28;20619;-51
2022/01/12 01:57:16;;;;;;;4.10;3.70;;;;;;;;;;4993953;28;20173;-50
2022/01/12 01:59:42;;;;;;;4.35;3.45;;;;;;;;;;4993832;28;20412;-50
2022/01/12 02:02:08;;;;;;;5.93;4.10;;;;;;;;;;4993130;28;20220;-49
2022/01/12 02:04:34;;;;;;;4.60;3.57;;;;;;;;;;4992726;28;20208;-50
2022/01/12 02:07:00;;;;;;;5.13;3.70;;;;;;;;;;4993325;28;20431;-50
2022/01/12 02:09:26;;;;;;;6.95;4.05;;;;;;;;;;4993469;28;20396;-50
2022/01/12 02:11:53;;;;;;;4.33;3.97;;;;;;;;;;4993662;28;20516;-50
2022/01/12 02:14:20;;;;;;;7.00;4.38;;;;;;;;;;4993149;28;20844;-49
2022/01/12 02:17:10;;;;;;;7.72;4.32;;;;;;;;;;4993534;28;20173;-51
2022/01/12 02:20:07;;;;;;;5.30;4.38;;;;;;;;;;4993330;28;20319;-49
2022/01/12 02:36:24;;;;;;;5.47;4.50;;;;;;;;;;4993178;28;20270;-50
2022/01/12 02:41:37;;;;;;;4.85;4.35;;;;;;;;;;4993122;28;20180;-51
2022/01/12 02:54:42;;;;;;;5.20;3.97;;;;;;;;;;4992475;28;20204;-50
2022/01/12 02:57:08;;;;;;;4.28;3.88;;;;;;;;;;4992878;28;20181;-50
2022/01/12 02:59:34;;;;;;;5.75;4.20;;;;;;;;;;4992855;28;20172;-50
2022/01/12 03:02:22;;;;;;;5.13;3.30;;;;;;;;;;4992792;28;20169;-49
2022/01/12 03:05:12;;;;;;;7.30;3.60;;;;;;;;;;4992353;28;20351;-50
2022/01/12 03:07:37;;;;;;;3.53;3.20;;;;;;;;;;4992431;28;20193;-50
2022/01/12 03:10:04;;;;;;;4.70;3.67;;;;;;;;;;4992678;28;20165;-51
2022/01/12 03:12:30;;;;;;;7.25;3.92;;;;;;;;;;4992969;28;20219;-50
2022/01/12 03:14:56;;;;;;;6.40;3.83;;;;;;;;;;4992301;28;20738;-49
2022/01/12 03:17:22;;;;;;;4.10;3.70;;;;;;;;;;4992536;28;20764;-49
2022/01/12 03:19:48;;;;;;;3.90;3.53;;;;;;;;;;4992514;28;20434;-49
2022/01/12 03:22:14;;;;;;;4.63;3.72;;;;;;;;;;4992524;28;20404;-50
2022/01/12 03:24:42;;;;;;;5.43;3.67;;;;;;;;;;4992032;28;20286;-50
2022/01/12 03:27:12;;;;;;;4.80;3.72;;;;;;;;;;4992491;28;20451;-49
2022/01/12 03:29:42;;;;;;;4.90;3.60;;;;;;;;;;4992412;28;20220;-50
2022/01/12 03:32:10;;;;;;;3.55;3.20;;;;;;;;;;4992363;28;20172;-50
2022/01/12 03:34:37;;;;;;;7.60;3.70;;;;;;;;;;4992312;28;20207;-50
2022/01/12 04:05:09;;;;;;;10.38;3.80;;;;;;;;;;4996778;28;20199;-51
2022/01/12 04:10:19;;;;;;;5.95;4.00;;;;;;;;;;4997504;28;20172;-50
2022/01/12 04:12:46;;;;;;;4.38;3.90;;;;;;;;;;4997358;28;20244;-50
2022/01/12 04:15:12;;;;;;;4.22;3.60;;;;;;;;;;4996871;28;20271;-50
2022/01/12 04:17:37;;;;;;;8.63;4.80;;;;;;;;;;4996838;28;20655;-50
2022/01/12 04:20:04;;;;;;;6.07;3.90;;;;;;;;;;4996645;28;20491;-51
2022/01/12 04:25:16;;;;;;;6.93;4.35;;;;;;;;;;4997335;28;20251;-51
2022/01/12 04:27:42;;;;;;;7.68;4.45;;;;;;;;;;4997513;28;20185;-52
2022/01/12 04:30:09;;;;;;;5.10;3.30;;;;;;;;;;4997225;28;20165;-51
2022/01/12 04:32:37;;;;;;;7.60;4.53;;;;;;;;;;4996321;28;20396;-51
2022/01/12 04:35:04;;;;;;;5.20;4.43;;;;;;;;;;4995985;28;20232;-52
2022/01/12 04:37:30;;;;;;;5.13;4.53;;;;;;;;;;4996414;28;20240;-51
2022/01/12 04:39:56;;;;;;;5.20;4.20;;;;;;;;;;4997182;28;20181;-50
2022/01/12 04:42:22;;;;;;;5.90;3.67;;;;;;;;;;4996980;28;20400;-50
2022/01/12 04:44:49;;;;;;;5.67;4.30;;;;;;;;;;4996412;28;20487;-51
2022/01/12 04:47:28;;;;;;;5.00;3.55;;;;;;;;;;4996380;28;20404;-51
2022/01/12 04:49:56;;;;;;;6.10;4.03;;;;;;;;;;4996780;28;20165;-52
2022/01/12 04:52:23;;;;;;;6.28;4.50;;;;;;;;;;4996351;28;20176;-51
2022/01/12 04:54:49;;;;;;;5.75;4.40;;;;;;;;;;4995804;28;20563;-52
2022/01/12 04:57:15;;;;;;;6.88;4.40;;;;;;;;;;4996412;28;20173;-50
2022/01/12 04:59:54;;;;;;;5.70;4.80;;;;;;;;;;4996124;28;20180;-51
2022/01/12 05:08:10;;;;;;;7.07;4.40;;;;;;;;;;4995272;28;20192;-53
2022/01/12 05:13:23;;;;;;;11.05;5.10;;;;;;;;;;4995592;28;20535;-52
2022/01/12 05:15:49;;;;;;;5.15;4.15;;;;;;;;;;4995283;28;20524;-52
2022/01/12 05:18:15;;;;;;;11.40;4.27;;;;;;;;;;4995629;28;20208;-50
2022/01/12 05:20:41;;;;;;;4.77;3.47;;;;;;;;;;4995823;28;20898;-51
2022/01/12 05:23:07;;;;;;;9.50;5.03;;;;;;;;;;4995673;28;20456;-51
2022/01/12 05:25:33;;;;;;;7.57;4.63;;;;;;;;;;4995598;28;20517;-53
2022/01/12 05:27:59;;;;;;;11.73;4.30;;;;;;;;;;4995969;28;20161;-51
2022/01/12 05:30:25;;;;;;;5.90;4.67;;;;;;;;;;4995822;28;20397;-51
2022/01/12 05:32:51;;;;;;;5.60;4.40;;;;;;;;;;4995456;28;20809;-50
2022/01/12 05:35:18;;;;;;;8.00;5.18;;;;;;;;;;4994769;28;20537;-52
2022/01/12 05:37:44;;;;;;;6.60;4.65;;;;;;;;;;4994973;28;20608;-51
2022/01/12 05:40:10;;;;;;;5.70;4.47;;;;;;;;;;4995318;28;20165;-52
2022/01/12 05:42:37;;;;;;;6.30;4.30;;;;;;;;;;4994970;28;20165;-52
2022/01/12 05:45:04;;;;;;;7.35;4.93;;;;;;;;;;4994728;28;20201;-52
2022/01/12 05:49:58;;;;;;;9.48;4.45;;;;;;;;;;4995036;28;20179;-53
2022/01/12 05:52:24;;;;;;;8.23;4.77;;;;;;;;;;4994745;28;20169;-52
2022/01/12 05:54:50;;;;;;;8.87;5.10;;;;;;;;;;4994079;28;20435;-52
2022/01/12 05:57:16;;;;;;;8.23;4.80;;;;;;;;;;4994033;28;20416;-51
2022/01/12 05:59:42;;;;;;;9.17;5.17;;;;;;;;;;4994891;28;20551;-52
2022/01/12 06:02:08;;;;;;;6.70;4.78;;;;;;;;;;4994679;28;20546;-50
2022/01/12 06:04:34;;;;;;;7.33;5.90;;;;;;;;;;4994040;28;20676;-51
2022/01/12 06:07:02;;;;;;;7.83;5.53;;;;;;;;;;4994744;28;20788;-53
2022/01/12 06:09:28;;;;;;;7.85;5.70;;;;;;;;;;4994559;28;20809;-51
2022/01/12 06:11:54;;;;;;;8.48;5.10;;;;;;;;;;4994681;28;20255;-52
2022/01/12 06:14:21;;;;;;;6.80;5.53;;;;;;;;;;4994155;28;20232;-51
2022/01/12 06:16:47;;;;;;;7.13;5.40;;;;;;;;;;4995012;28;20244;-51
2022/01/12 06:19:15;;;;;;;9.60;5.40;;;;;;;;;;4994594;28;20196;-50
2022/01/12 06:21:41;;;;;;;4.93;4.43;;;;;;;;;;4994309;28;20169;-51
2022/01/12 06:24:07;;;;;;;7.53;5.87;;;;;;;;;;4993946;28;20251;-50
2022/01/12 06:26:33;;;;;;;6.77;5.10;;;;;;;;;;4994376;28;20411;-52
2022/01/12 06:31:37;;;;;;;8.77;4.90;;;;;;;;;;4994545;28;20215;-51
2022/01/12 06:34:03;;;;;;;12.32;5.75;;;;;;;;;;4993743;28;20192;-51
2022/01/12 06:36:29;;;;;;;6.93;5.10;;;;;;;;;;4993903;28;20542;-52
2022/01/12 06:38:55;;;;;;;6.93;4.97;;;;;;;;;;4993459;28;20404;-52
2022/01/12 06:41:22;;;;;;;10.20;5.32;;;;;;;;;;4993475;28;20431;-50
2022/01/12 06:43:48;;;;;;;11.55;5.47;;;;;;;;;;4992902;28;20205;-52
2022/01/12 06:46:17;;;;;;;12.02;5.85;;;;;;;;;;4993517;28;20223;-51
2022/01/12 06:48:43;;;;;;;9.50;6.03;;;;;;;;;;4993357;28;20252;-50
2022/01/12 06:51:09;;;;;;;7.53;5.20;;;;;;;;;;4994078;28;20255;-50
2022/01/12 06:53:35;;;;;;;6.82;5.22;;;;;;;;;;4993165;28;20404;-49
2022/01/12 06:56:02;;;;;;;7.18;5.72;;;;;;;;;;4993535;28;20545;-50
2022/01/12 06:58:28;;;;;;;12.40;6.10;;;;;;;;;;4994082;28;20184;-51
2022/01/12 07:00:54;;;;;;;5.50;5.00;;;;;;;;;;4993795;28;20177;-51
2022/01/12 07:03:20;;;;;;;11.30;5.68;;;;;;;;;;4993149;28;20994;-50
2022/01/12 07:05:47;;;;;;;9.73;6.40;;;;;;;;;;4992989;28;20247;-52
2022/01/12 07:08:13;;;;;;;10.05;5.93;;;;;;;;;;4993140;28;20431;-52
2022/01/12 07:10:39;;;;;;;9.10;6.20;;;;;;;;;;4992940;28;20174;-53
2022/01/12 07:13:05;;;;;;;6.13;5.13;;;;;;;;;;4992972;28;20171;-53
2022/01/12 07:15:31;;;;;;;9.17;6.00;;;;;;;;;;4992732;28;20280;-51
2022/01/12 07:18:02;;;;;;;8.27;6.13;;;;;;;;;;4993024;28;20408;-51
2022/01/12 07:20:28;;;;;;;9.35;5.60;;;;;;;;;;4993237;28;20180;-53
2022/01/12 07:22:54;;;;;;;9.87;6.83;;;;;;;;;;4994335;28;20181;-52
2022/01/12 07:25:20;;;;;;;7.53;5.40;;;;;;;;;;4991825;28;20428;-50
2022/01/12 07:27:46;;;;;;;6.78;5.38;;;;;;;;;;4991831;28;20408;-50
2022/01/12 07:30:12;;;;;;;9.50;6.47;;;;;;;;;;4992595;28;20165;-50
2022/01/12 07:32:38;;;;;;;8.40;6.32;;;;;;;;;;4996127;28;20436;-49
2022/01/12 07:35:04;;;;;;;10.63;5.72;;;;;;;;;;4992616;28;20681;-51
2022/01/12 07:37:30;;;;;;;12.05;6.00;;;;;;;;;;4992914;28;20175;-51
2022/01/12 07:39:56;;;;;;;7.22;5.95;;;;;;;;;;4992446;28;20544;-51
2022/01/12 07:42:23;;;;;;;8.35;6.55;;;;;;;;;;4992752;28;20702;-51
2022/01/12 07:44:49;;;;;;;12.65;6.57;;;;;;;;;;4992401;28;20204;-52
2022/01/12 07:47:15;;;;;;;9.32;5.93;;;;;;;;;;4993158;28;20676;-51
2022/01/12 07:49:41;;;;;;;12.13;6.80;;;;;;;;;;4992925;28;20165;-53
2022/01/12 07:52:07;;;;;;;11.43;5.40;;;;;;;;;;4992372;28;20404;-52
2022/01/12 07:54:33;;;;;;;11.63;6.33;;;;;;;;;;4992282;28;20939;-53
2022/01/12 07:56:59;;;;;;;7.53;5.63;;;;;;;;;;4993066;28;20420;-52
2022/01/12 07:59:25;;;;;;;11.15;7.15;;;;;;;;;;4992881;28;20415;-52
2022/01/12 08:01:51;;;;;;;13.13;6.90;;;;;;;;;;4992773;28;20177;-51
2022/01/12 08:04:17;;;;;;;9.50;7.13;;;;;;;;;;4992262;28;20468;-50
2022/01/12 08:06:43;;;;;;;10.77;6.33;;;;;;;;;;4992844;28;20427;-50
2022/01/12 08:09:09;;;;;;;6.70;5.43;;;;;;;;;;4993041;28;20463;-52
2022/01/12 08:11:35;;;;;;;13.17;7.30;;;;;;;;;;4993026;28;20748;-50
2022/01/12 08:14:01;;;;;;;29.13;8.43;;;;;;;;;;4992424;28;20430;-50
2022/01/12 08:16:27;;;;;;;13.03;6.90;;;;;;;;;;4992622;28;20403;-50
2022/01/12 08:18:54;;;;;;;9.13;7.63;;;;;;;;;;4992392;28;20408;-51
2022/01/12 08:21:21;;;;;;;10.70;6.80;;;;;;;;;;4993864;28;20416;-52
2022/01/12 08:23:47;;;;;;;12.40;7.40;;;;;;;;;;4995849;28;20608;-52
2022/01/12 08:26:13;;;;;;;10.60;7.57;;;;;;;;;;4996244;28;20172;-52
2022/01/12 08:28:39;;;;;;;10.90;7.70;;;;;;;;;;4996074;28;20431;-51
2022/01/12 08:31:05;;;;;;;12.68;6.68;;;;;;;;;;4996403;28;20162;-51
2022/01/12 08:33:32;;;;;;;14.93;7.87;;;;;;;;;;4996181;28;20588;-51
2022/01/12 08:35:58;;;;;;;13.85;7.88;;;;;;;;;;4996301;28;20483;-50
2022/01/12 08:38:24;;;;;;;18.25;7.97;;;;;;;;;;4995872;28;20256;-52
2022/01/12 08:40:50;;;;;;;12.35;7.80;;;;;;;;;;4996104;28;20199;-52
2022/01/12 08:43:16;;;;;;;16.50;8.50;;;;;;;;;;4996173;28;20193;-51
2022/01/12 08:45:42;;;;;;;15.10;9.15;;;;;;;;;;4995376;28;20189;-53
2022/01/12 08:48:08;;;;;;;13.17;8.40;;;;;;;;;;4995934;28;20188;-50
2022/01/12 08:50:34;;;;;;;14.10;8.93;;;;;;;;;;4996039;28;20534;-52
2022/01/12 08:53:00;;;;;;;11.23;7.50;;;;;;;;;;4995679;28;20168;-52
2022/01/12 08:55:26;;;;;;;14.05;7.85;;;;;;;;;;4995672;28;20621;-52
2022/01/12 08:57:52;;;;;;;11.05;7.90;;;;;;;;;;4996004;28;20192;-52
2022/01/12 09:00:19;;;;;;;13.18;8.00;;;;;;;;;;4995618;28;20173;-50
2022/01/12 09:02:45;;;;;;;14.52;7.97;;;;;;;;;;4995980;28;20530;-52
2022/01/12 09:05:11;;;;;;;14.32;8.32;;;;;;;;;;4995041;28;20224;-52
2022/01/12 09:07:38;;;;;;;13.38;7.72;;;;;;;;;;4995350;28;20181;-50
2022/01/12 09:10:04;;;;;;;13.73;8.07;;;;;;;;;;4995731;28;20169;-52
2022/01/12 09:12:30;;;;;;;25.60;9.40;;;;;;;;;;4995363;28;20272;-51
2022/01/12 09:14:56;;;;;;;16.92;9.57;;;;;;;;;;4995282;28;20193;-51
2022/01/12 09:17:23;;;;;;;14.57;8.07;;;;;;;;;;4995775;28;20181;-52
2022/01/12 09:19:49;;;;;;;17.48;8.90;;;;;;;;;;4995696;28;20207;-50
2022/01/12 09:22:16;;;;;;;17.05;9.05;;;;;;;;;;4995645;28;20235;-52
2022/01/12 09:24:44;;;;;;;16.00;8.52;;;;;;;;;;4995206;28;20247;-51
2022/01/12 09:27:10;;;;;;;18.08;8.65;;;;;;;;;;4996095;28;20168;-51
2022/01/12 09:29:36;;;;;;;18.77;9.87;;;;;;;;;;4995642;28;20173;-50
2022/01/12 09:32:02;;;;;;;20.07;10.30;;;;;;;;;;4994999;28;20405;-50
2022/01/12 09:34:28;;;;;;;18.50;9.77;;;;;;;;;;4994202;28;20434;-50
2022/01/12 09:36:54;;;;;;;21.63;10.40;;;;;;;;;;4995330;28;20410;-52
2022/01/12 09:39:19;;;;;;;23.40;10.27;;;;;;;;;;4994859;28;20970;-52
2022/01/12 09:41:46;;;;;;;21.17;9.80;;;;;;;;;;4995120;28;20491;-50
2022/01/12 09:44:12;;;;;;;23.85;10.82;;;;;;;;;;4994493;28;20993;-50
2022/01/12 09:46:38;;;;;;;19.73;10.48;;;;;;;;;;4994676;28;20169;-51
2022/01/12 09:49:06;;;;;;;19.10;10.43;;;;;;;;;;4994445;28;20188;-50
2022/01/12 09:51:33;;;;;;;21.50;11.30;;;;;;;;;;4995288;28;20810;-50
2022/01/12 09:53:59;;;;;;;19.73;9.30;;;;;;;;;;4994383;28;20189;-52
2022/01/12 09:56:30;;;;;;;17.45;10.02;;;;;;;;;;4994687;28;20200;-52
2022/01/12 09:58:57;;;;;;;19.48;10.10;;;;;;;;;;4994563;28;20215;-51
2022/01/12 10:01:28;;;;;;;18.50;10.15;;;;;;;;;;4994348;28;20169;-51
2022/01/12 10:04:05;;;;;;;18.98;10.48;;;;;;;;;;4993981;28;20197;-52
2022/01/12 10:06:34;;;;;;;17.98;10.73;;;;;;;;;;5020636;23;20207;-58
2022/01/12 10:09:00;;;;;;;15.73;10.38;;;;;;;;;;4998834;28;20185;-57
2022/01/12 10:11:26;;;;;;;25.17;12.20;;;;;;;;;;4993918;28;20180;-57
2022/01/12 10:13:56;;;;;;;19.95;10.85;;;;;;;;;;4993253;28;20463;-57
2022/01/12 10:16:26;;;;;;;17.50;10.30;;;;;;;;;;4990824;28;20201;-58
2022/01/12 10:18:52;;;;;;;17.33;11.27;;;;;;;;;;4973971;28;20209;-58
2022/01/12 10:21:35;;;;;;;25.25;11.80;;;;;;;;;;4974094;28;20174;-58
2022/01/12 10:24:08;;;;;;;21.50;11.35;;;;;;;;;;4973603;28;20205;-58
2022/01/12 10:26:39;;;;;;;23.83;12.13;;;;;;;;;;4974192;28;20186;-58
2022/01/12 10:29:06;;;;;;;25.63;11.30;;;;;;;;;;4973755;28;20166;-57
2022/01/12 10:31:55;;;;;;;25.95;12.50;;;;;;;;;;4973776;28;20177;-57
2022/01/12 10:34:26;;;;;;;21.70;12.38;;;;;;;;;;4973748;28;20169;-58
2022/01/12 10:36:53;;;;;;;27.00;11.05;;;;;;;;;;4973518;28;20280;-57
2022/01/12 10:39:21;;;;;;;23.88;12.13;;;;;;;;;;4973627;28;20248;-58
2022/01/12 10:41:58;;;;;;;24.30;12.23;;;;;;;;;;4973603;28;20162;-58
2022/01/12 10:44:30;;;;;;;25.55;12.60;;;;;;;;;;4972980;28;20284;-57
2022/01/12 10:47:22;;;;;;;28.27;13.02;;;;;;;;;;4973418;28;20190;-57
2022/01/12 10:49:54;;;;;;;20.92;11.57;;;;;;;;;;4971583;28;20199;-58
2022/01/12 10:52:21;;;;;;;30.60;14.43;;;;;;;;;;4973585;28;20379;-57
2022/01/12 10:54:51;;;;;;;30.88;13.07;;;;;;;;;;4973128;28;20169;-58
2022/01/12 10:57:19;;;;;;;29.77;13.73;;;;;;;;;;4973425;28;20551;-57
2022/01/12 11:00:04;;;;;;;24.02;11.85;;;;;;;;;;4973347;28;20289;-57
2022/01/12 11:02:30;;;;;;;30.40;12.68;;;;;;;;;;4973327;28;20185;-58
2022/01/12 11:05:00;;;;;;;22.60;12.13;;;;;;;;;;4972841;28;20236;-57
2022/01/12 11:07:26;;;;;;;28.98;12.13;;;;;;;;;;4973123;28;20205;-58
2022/01/12 11:09:55;;;;;;;31.35;13.00;;;;;;;;;;4973279;28;20166;-57
2022/01/12 11:12:21;;;;;;;31.75;15.63;;;;;;;;;;4972980;28;20166;-58
2022/01/12 11:14:47;;;;;;;28.13;13.70;;;;;;;;;;4972789;28;20660;-58
2022/01/12 11:17:13;;;;;;;29.08;14.80;;;;;;;;;;4972952;28;20459;-57
2022/01/12 11:19:40;;;;;;;33.17;14.63;;;;;;;;;;4973047;28;20227;-57
2022/01/12 11:22:25;;;;;;;31.25;15.00;;;;;;;;;;4973238;28;20417;-58
2022/01/12 11:24:53;;;;;;;34.80;14.32;;;;;;;;;;4972669;28;20230;-57
2022/01/12 11:27:22;;;;;;;33.17;14.63;;;;;;;;;;4972879;28;20263;-57
2022/01/12 11:29:48;;;;;;;32.33;14.82;;;;;;;;;;4972965;28;20252;-58
2022/01/12 11:32:21;;;;;;;34.97;15.37;;;;;;;;;;4973140;28;20709;-57
2022/01/12 11:34:57;;;;;;;33.10;14.73;;;;;;;;;;4972703;28;20732;-57
2022/01/12 11:37:24;;;;;;;37.33;14.77;;;;;;;;;;4972833;28;20276;-57
2022/01/12 11:39:50;;;;;;;34.00;13.93;;;;;;;;;;4972891;28;20659;-57
2022/01/12 11:42:17;;;;;;;27.77;14.00;;;;;;;;;;4972787;28;20178;-57
2022/01/12 11:44:44;;;;;;;35.83;15.32;;;;;;;;;;4972374;28;20460;-57
2022/01/12 11:47:15;;;;;;;29.27;16.55;;;;;;;;;;4972793;28;20189;-57
2022/01/12 11:49:44;;;;;;;28.38;13.80;;;;;;;;;;4972881;28;20184;-57
2022/01/12 11:52:15;;;;;;;35.63;15.98;;;;;;;;;;4971487;28;20716;-57
2022/01/12 11:54:47;;;;;;;32.35;16.10;;;;;;;;;;4972372;28;20213;-58
2022/01/12 11:57:18;;;;;;;38.13;15.75;;;;;;;;;;4975528;28;20213;-57
2022/01/12 11:59:50;;;;;;;41.22;16.15;;;;;;;;;;4976713;28;20170;-57
2022/01/12 12:02:17;;;;;;;42.08;17.50;;;;;;;;;;4976575;28;20170;-57
2022/01/12 12:05:12;;;;;;;33.88;15.75;;;;;;;;;;4976104;28;20197;-58
2022/01/12 12:07:49;;;;;;;45.15;17.48;;;;;;;;;;4963162;28;20291;-58
2022/01/12 12:10:17;;;;;;;45.30;17.35;;;;;;;;;;4976365;28;20251;-58
2022/01/12 12:12:43;;;;;;;49.50;18.65;;;;;;;;;;4976311;28;20217;-58
2022/01/12 12:15:10;;;;;;;40.42;19.88;;;;;;;;;;4976002;28;20630;-58
2022/01/12 12:17:36;;;;;;;42.25;18.30;;;;;;;;;;4976252;28;20284;-58
2022/01/12 12:20:04;;;;;;;43.50;17.63;;;;;;;;;;4976236;28;20257;-58
2022/01/12 12:22:31;;;;;;;36.63;17.48;;;;;;;;;;4975503;28;20220;-58
2022/01/12 12:25:07;;;;;;;43.90;18.75;;;;;;;;;;4975856;28;20264;-57
2022/01/12 12:27:34;;;;;;;43.95;17.80;;;;;;;;;;4976148;28;20265;-58
2022/01/12 12:30:00;;;;;;;46.28;18.95;;;;;;;;;;4976166;28;20180;-58
2022/01/12 12:32:34;;;;;;;46.10;17.50;;;;;;;;;;4976067;28;20180;-58
2022/01/12 12:35:02;;;;;;;52.85;19.52;;;;;;;;;;4975807;28;20165;-58
2022/01/12 12:37:34;;;;;;;37.80;17.30;;;;;;;;;;4975920;28;20203;-58
2022/01/12 12:40:11;;;;;;;42.40;18.30;;;;;;;;;;4975851;28;20182;-58
2022/01/12 12:42:38;;;;;;;41.75;17.58;;;;;;;;;;4975888;28;20197;-58
2022/01/12 12:45:04;;;;;;;42.35;17.67;;;;;;;;;;4975595;28;20236;-58
2022/01/12 12:47:32;;;;;;;46.13;18.10;;;;;;;;;;4975729;28;20566;-58
2022/01/12 12:50:01;;;;;;;47.30;19.88;;;;;;;;;;4975837;28;20638;-58
2022/01/12 12:52:37;;;;;;;47.08;20.80;;;;;;;;;;4975806;28;20637;-57
2022/01/12 12:55:06;;;;;;;47.50;20.13;;;;;;;;;;4975427;28;20633;-58
2022/01/12 12:57:32;;;;;;;50.10;19.98;;;;;;;;;;4975544;28;20193;-58
2022/01/12 13:00:12;;;;;;;50.72;22.23;;;;;;;;;;4975533;28;20217;-58
2022/01/12 13:02:42;;;;;;;54.00;21.30;;;;;;;;;;4975547;28;20665;-58
2022/01/12 13:05:09;;;;;;;55.25;20.35;;;;;;;;;;4975089;28;20208;-58
2022/01/12 13:07:39;;;;;;;54.63;20.40;;;;;;;;;;4975204;28;20257;-58
2022/01/12 13:10:06;;;;;;;58.22;21.45;;;;;;;;;;4975314;28;20189;-58
2022/01/12 13:12:36;;;;;;;48.22;20.23;;;;;;;;;;4974949;28;20169;-58
2022/01/12 13:15:02;;;;;;;41.33;18.27;;;;;;;;;;4973772;28;20220;-58
2022/01/12 13:17:28;;;;;;;56.78;22.73;;;;;;;;;;4975292;28;20196;-58
2022/01/12 13:22:27;;;;;;;50.87;22.97;;;;;;;;;;4975182;28;20428;-58
2022/01/12 13:24:53;;;;;;;55.25;23.75;;;;;;;;;;4974708;28;20461;-58
2022/01/12 13:27:20;;;;;;;51.63;22.60;;;;;;;;;;4974979;28;20192;-58
2022/01/12 13:29:49;;;;;;;62.13;23.35;;;;;;;;;;4975083;28;20409;-58
2022/01/12 13:32:16;;;;;;;50.22;24.00;;;;;;;;;;4974992;28;20177;-58
2022/01/12 13:34:43;;;;;;;49.97;22.17;;;;;;;;;;4974459;28;20174;-58
2022/01/12 13:37:15;;;;;;;68.50;25.90;;;;;;;;;;4974782;28;20774;-58
2022/01/12 13:39:42;;;;;;;55.88;22.52;;;;;;;;;;4974736;28;20180;-58
2022/01/12 13:42:09;;;;;;;69.65;24.00;;;;;;;;;;4974074;28;20174;-58
2022/01/12 13:44:35;;;;;;;55.35;23.05;;;;;;;;;;4974451;28;20206;-58
2022/01/12 13:47:23;;;;;;;72.20;23.53;;;;;;;;;;4974711;28;20696;-58
2022/01/12 13:49:49;;;;;;;55.35;22.38;;;;;;;;;;4973098;28;20428;-58
2022/01/12 13:52:15;;;;;;;63.28;24.20;;;;;;;;;;4971470;28;20170;-57
2022/01/12 13:54:45;;;;;;;47.72;22.33;;;;;;;;;;4972411;28;20531;-58
2022/01/12 13:57:12;;;;;;;57.70;23.75;;;;;;;;;;4972598;28;20186;-57
2022/01/12 13:59:48;;;;;;;65.18;23.20;;;;;;;;;;4973175;28;20828;-58
2022/01/12 14:02:15;;;;;;;51.17;22.10;;;;;;;;;;4967113;28;20177;-58
2022/01/12 14:04:45;;;;;;;56.92;24.92;;;;;;;;;;4973986;28;20296;-58
2022/01/12 14:07:21;;;;;;;66.40;23.95;;;;;;;;;;4973675;28;20260;-58
2022/01/12 14:09:53;;;;;;;60.13;23.48;;;;;;;;;;4974291;28;20192;-58
2022/01/12 14:12:19;;;;;;;63.53;22.10;;;;;;;;;;4974138;28;20170;-58
2022/01/12 14:14:47;;;;;;;61.53;21.05;;;;;;;;;;4972365;28;20166;-57
2022/01/12 14:17:26;;;;;;;50.00;20.17;;;;;;;;;;4973253;28;20229;-58
2022/01/12 14:19:53;;;;;;;51.08;21.25;;;;;;;;;;4973563;28;20181;-57
2022/01/12 14:22:19;;;;;;;47.75;17.77;;;;;;;;;;4974007;28;20248;-58
2022/01/12 14:24:58;;;;;;;51.72;20.80;;;;;;;;;;4973107;28;20203;-58
2022/01/12 14:27:25;;;;;;;60.17;19.35;;;;;;;;;;4973322;28;20205;-58
2022/01/12 14:29:51;;;;;;;43.78;18.00;;;;;;;;;;4970186;28;20184;-58
2022/01/12 14:32:17;;;;;;;61.22;19.80;;;;;;;;;;4977329;28;20189;-57
2022/01/12 14:34:43;;;;;;;46.30;18.17;;;;;;;;;;4973210;28;20556;-57
2022/01/12 14:37:09;;;;;;;47.13;18.80;;;;;;;;;;4972982;28;20423;-58
2022/01/12 14:39:36;;;;;;;51.95;20.40;;;;;;;;;;4973101;28;20675;-57
2022/01/12 14:42:02;;;;;;;39.25;18.05;;;;;;;;;;4972878;28;20201;-57
2022/01/12 14:44:29;;;;;;;49.17;18.00;;;;;;;;;;4972411;28;20240;-58
2022/01/12 14:46:56;;;;;;;48.47;19.90;;;;;;;;;;4972665;28;20421;-58
2022/01/12 14:49:21;;;;;;;40.67;18.00;;;;;;;;;;4973532;28;20170;-58
2022/01/12 14:51:47;;;;;;;51.50;21.10;;;;;;;;;;4973439;28;20176;-57
2022/01/12 14:54:13;;;;;;;39.00;17.33;;;;;;;;;;4973260;28;20441;-57
2022/01/12 14:56:39;;;;;;;48.93;21.00;;;;;;;;;;4972368;28;20468;-57
2022/01/12 14:59:05;;;;;;;45.43;20.60;;;;;;;;;;4973455;28;20771;-58
2022/01/12 15:01:31;;;;;;;50.47;19.50;;;;;;;;;;4972836;28;20409;-58
2022/01/12 15:03:57;;;;;;;46.00;19.60;;;;;;;;;;4970898;28;20500;-57
2022/01/12 15:06:23;;;;;;;55.37;22.73;;;;;;;;;;4972910;28;20784;-58
2022/01/12 15:08:49;;;;;;;38.70;18.73;;;;;;;;;;4973257;28;20557;-58
2022/01/12 15:11:15;;;;;;;44.43;18.50;;;;;;;;;;4973257;28;20412;-58
2022/01/12 15:13:54;;;;;;;34.00;16.73;;;;;;;;;;4972891;28;20401;-58
2022/01/12 15:16:20;;;;;;;45.20;18.85;;;;;;;;;;4973165;28;20412;-58
2022/01/12 15:18:46;;;;;;;39.97;18.87;;;;;;;;;;4972137;28;20173;-58
2022/01/12 15:21:12;;;;;;;40.70;18.02;;;;;;;;;;4972102;28;20416;-58
2022/01/12 15:23:38;;;;;;;43.90;17.90;;;;;;;;;;4972691;28;20195;-57
2022/01/12 15:26:04;;;;;;;36.87;19.43;;;;;;;;;;4973123;28;20173;-58
2022/01/12 15:28:31;;;;;;;38.93;17.83;;;;;;;;;;4973009;28;20460;-58
2022/01/12 15:30:57;;;;;;;48.08;19.02;;;;;;;;;;4972008;28;20393;-58
2022/01/12 15:33:23;;;;;;;41.63;17.60;;;;;;;;;;4970058;28;20174;-58
2022/01/12 15:35:49;;;;;;;41.55;17.63;;;;;;;;;;4972359;28;20170;-58
2022/01/12 15:38:17;;;;;;;44.15;17.83;;;;;;;;;;4972303;28;20193;-58
2022/01/12 15:40:45;;;;;;;35.65;16.70;;;;;;;;;;4972635;28;20225;-58
2022/01/12 15:43:11;;;;;;;45.53;18.40;;;;;;;;;;4972771;28;20169;-58
2022/01/12 15:45:40;;;;;;;36.97;17.73;;;;;;;;;;4972626;28;20540;-58
2022/01/12 15:48:09;;;;;;;36.33;18.25;;;;;;;;;;4971968;28;20436;-57
2022/01/12 15:50:35;;;;;;;40.50;17.58;;;;;;;;;;4971751;28;20169;-57
2022/01/12 15:53:05;;;;;;;41.20;16.92;;;;;;;;;;4972878;28;20166;-57
2022/01/12 15:55:31;;;;;;;40.35;17.77;;;;;;;;;;4972976;28;20162;-56
2022/01/12 15:57:58;;;;;;;40.05;18.40;;;;;;;;;;4977890;28;20213;-57
2022/01/12 16:00:24;;;;;;;47.45;18.65;;;;;;;;;;4972802;28;20177;-57
2022/01/12 16:02:50;;;;;;;49.15;17.90;;;;;;;;;;4970549;28;20193;-57
2022/01/12 16:05:16;;;;;;;49.03;18.50;;;;;;;;;;4971310;28;20213;-57
2022/01/12 16:07:42;;;;;;;38.72;18.25;;;;;;;;;;4975642;28;20538;-57
2022/01/12 16:10:08;;;;;;;48.60;19.03;;;;;;;;;;4969952;28;20256;-57
2022/01/12 16:12:34;;;;;;;43.78;17.40;;;;;;;;;;4972607;28;20432;-58
2022/01/12 16:15:02;;;;;;;34.13;16.92;;;;;;;;;;4971537;28;20189;-57